Time;durP1;ratioP1;P1;durP2;ratioP2;P2;SDS_P1;SDS_P2;PMS_P1;PMS_P2;Temp;Humidity;BMP_temperature;BMP_pressure;BME280_temperature;BME280_humidity;BME280_pressure;Samples;Min_cycle;Max_cycle;Signal;HPM_P1;HPM_P2
2024/01/25 00:01:27;;;;;;;21.73;2.42;;;10.80;99.90;;;;;;4859372;29;20459;-69
2024/01/25 00:03:52;;;;;;;8.63;1.33;;;10.90;99.90;;;;;;4857397;29;20034;-69
2024/01/25 00:06:20;;;;;;;12.68;1.63;;;10.90;99.90;;;;;;4858321;29;20426;-69
2024/01/25 00:08:45;;;;;;;10.88;2.25;;;10.80;99.90;;;;;;4856910;29;20025;-69
2024/01/25 00:11:11;;;;;;;20.85;2.88;;;10.90;99.90;;;;;;4860032;29;20045;-69
2024/01/25 00:13:38;;;;;;;14.77;2.40;;;10.90;99.90;;;;;;4857776;29;20025;-69
2024/01/25 00:16:04;;;;;;;11.30;2.58;;;10.90;99.90;;;;;;4859488;29;20029;-69
2024/01/25 00:18:30;;;;;;;16.73;1.80;;;10.90;99.90;;;;;;4857535;29;20086;-69
2024/01/25 00:20:56;;;;;;;20.45;3.72;;;10.90;99.90;;;;;;4856834;29;20042;-69
2024/01/25 00:23:22;;;;;;;14.27;2.50;;;10.90;99.90;;;;;;4857834;29;20026;-69
2024/01/25 00:25:47;;;;;;;25.52;2.33;;;10.90;99.90;;;;;;4872545;29;20498;-69
2024/01/25 00:28:13;;;;;;;4.28;1.40;;;10.90;99.90;;;;;;4858983;29;20391;-69
2024/01/25 00:30:39;;;;;;;7.65;2.67;;;10.90;99.90;;;;;;4858565;29;20045;-69
2024/01/25 00:33:05;;;;;;;19.73;2.40;;;10.80;99.90;;;;;;4858380;29;20029;-69
2024/01/25 00:35:32;;;;;;;9.05;2.33;;;10.80;99.90;;;;;;4868160;29;20033;-69
2024/01/25 00:38:00;;;;;;;13.02;2.25;;;10.80;99.90;;;;;;4858715;29;20109;-69
2024/01/25 00:40:25;;;;;;;10.55;2.65;;;10.70;99.90;;;;;;4872944;29;20047;-69
2024/01/25 00:42:55;;;;;;;9.38;1.55;;;10.70;99.90;;;;;;4857472;29;20061;-69
2024/01/25 00:45:23;;;;;;;15.65;3.50;;;10.70;99.90;;;;;;4855397;29;20352;-69
2024/01/25 00:47:50;;;;;;;9.82;1.77;;;10.70;99.90;;;;;;4851306;29;20048;-70
2024/01/25 00:50:19;;;;;;;12.32;2.40;;;10.70;99.90;;;;;;4843770;29;20426;-70
2024/01/25 00:52:45;;;;;;;11.52;1.70;;;10.60;99.90;;;;;;4861732;29;20055;-70
2024/01/25 00:55:11;;;;;;;6.15;1.20;;;10.60;99.90;;;;;;4862066;29;20402;-70
2024/01/25 00:57:41;;;;;;;7.22;1.48;;;10.70;99.90;;;;;;4849316;29;20121;-69
2024/01/25 01:00:08;;;;;;;22.27;2.33;;;10.70;99.90;;;;;;4849350;29;20044;-70
2024/01/25 01:02:39;;;;;;;6.88;2.55;;;10.60;99.90;;;;;;4853062;29;20453;-69
2024/01/25 01:05:06;;;;;;;9.77;0.95;;;10.60;99.90;;;;;;4856373;29;20037;-70
2024/01/25 01:07:32;;;;;;;7.80;1.00;;;10.60;99.90;;;;;;4863440;29;20387;-69
2024/01/25 01:09:58;;;;;;;7.47;1.92;;;10.60;99.90;;;;;;4856613;29;20077;-70
2024/01/25 01:12:24;;;;;;;21.55;2.92;;;10.60;99.90;;;;;;4858928;29;20034;-70
2024/01/25 01:14:50;;;;;;;14.60;2.40;;;10.70;99.90;;;;;;4837149;29;20018;-70
2024/01/25 01:17:16;;;;;;;14.82;2.10;;;10.70;99.90;;;;;;4856691;29;20058;-69
2024/01/25 01:19:42;;;;;;;11.15;1.60;;;10.70;99.90;;;;;;4856494;29;20033;-69
2024/01/25 01:22:08;;;;;;;8.95;2.30;;;10.60;99.90;;;;;;4856790;29;20487;-69
2024/01/25 01:24:33;;;;;;;17.73;1.35;;;10.50;99.90;;;;;;4856170;29;20033;-69
2024/01/25 01:26:59;;;;;;;7.57;2.88;;;10.50;99.90;;;;;;4872421;29;20076;-69
2024/01/25 01:29:25;;;;;;;5.93;1.73;;;10.40;99.90;;;;;;4856812;29;20029;-71
2024/01/25 01:31:51;;;;;;;6.50;1.20;;;10.30;99.90;;;;;;4858372;29;20037;-70
2024/01/25 01:34:17;;;;;;;9.75;1.70;;;10.30;99.90;;;;;;4856442;29;20092;-70
2024/01/25 01:36:44;;;;;;;15.35;2.35;;;10.30;99.90;;;;;;4868994;29;20097;-70
2024/01/25 01:39:10;;;;;;;6.05;1.88;;;10.30;99.90;;;;;;4855358;29;20041;-70
2024/01/25 01:41:36;;;;;;;16.20;2.75;;;10.20;99.90;;;;;;4871474;29;20100;-70
2024/01/25 01:44:03;;;;;;;11.93;1.95;;;10.20;99.90;;;;;;4855146;29;20506;-72
2024/01/25 01:46:39;;;;;;;14.95;2.88;;;10.20;99.90;;;;;;4871598;29;20604;-71
2024/01/25 01:49:10;;;;;;;7.38;1.20;;;10.30;99.90;;;;;;4871100;29;20383;-71
2024/01/25 01:51:36;;;;;;;13.73;2.45;;;10.30;99.90;;;;;;4857762;29;20030;-70
2024/01/25 01:54:05;;;;;;;5.68;1.33;;;10.20;99.90;;;;;;4855515;29;20029;-69
2024/01/25 01:56:32;;;;;;;5.97;1.02;;;10.20;99.90;;;;;;4870760;29;20554;-69
2024/01/25 01:59:00;;;;;;;11.10;1.60;;;10.20;99.90;;;;;;4855775;29;20080;-69
2024/01/25 02:01:27;;;;;;;6.72;1.38;;;10.30;99.90;;;;;;4871432;29;20104;-69
2024/01/25 02:03:53;;;;;;;12.57;1.48;;;10.20;99.90;;;;;;4857302;29;20025;-69
2024/01/25 02:06:20;;;;;;;18.00;2.20;;;10.30;99.90;;;;;;4849943;29;20132;-70
2024/01/25 02:08:50;;;;;;;14.73;1.63;;;10.20;99.90;;;;;;4848846;29;20129;-70
2024/01/25 02:11:17;;;;;;;19.50;3.15;;;10.20;99.90;;;;;;4856095;29;20046;-69
2024/01/25 02:13:43;;;;;;;6.18;1.40;;;10.20;99.90;;;;;;4854740;29;20066;-70
2024/01/25 02:16:09;;;;;;;15.27;1.63;;;10.20;99.90;;;;;;4872006;29;20029;-69
2024/01/25 02:18:35;;;;;;;6.63;1.50;;;10.20;99.90;;;;;;4854780;29;20037;-68
2024/01/25 02:21:01;;;;;;;7.22;1.40;;;10.20;99.90;;;;;;4871392;29;20164;-69
2024/01/25 02:23:27;;;;;;;10.35;1.58;;;10.20;99.90;;;;;;4857677;29;20041;-69
2024/01/25 02:25:53;;;;;;;7.05;1.45;;;10.30;99.90;;;;;;4855013;29;20060;-69
2024/01/25 02:28:19;;;;;;;6.82;1.08;;;10.20;99.90;;;;;;4857688;29;20029;-69
2024/01/25 02:30:47;;;;;;;12.00;1.55;;;10.20;99.90;;;;;;4871870;29;20040;-69
2024/01/25 02:33:13;;;;;;;10.98;1.65;;;10.30;99.90;;;;;;4856210;29;20396;-69
2024/01/25 02:35:39;;;;;;;15.95;1.95;;;10.20;99.90;;;;;;4871975;29;20100;-69
2024/01/25 02:38:04;;;;;;;10.20;2.47;;;10.30;99.90;;;;;;4857776;29;20033;-69
2024/01/25 02:40:30;;;;;;;10.23;1.42;;;10.20;99.90;;;;;;4857486;29;20506;-69
2024/01/25 02:42:56;;;;;;;11.13;1.40;;;10.20;99.90;;;;;;4858136;29;20562;-69
2024/01/25 02:45:23;;;;;;;11.93;1.85;;;10.20;99.90;;;;;;4857076;29;20048;-69
2024/01/25 02:47:49;;;;;;;20.92;1.33;;;10.20;99.90;;;;;;4858332;29;20055;-69
2024/01/25 02:50:15;;;;;;;12.02;2.40;;;10.20;99.90;;;;;;4854628;29;20566;-69
2024/01/25 02:52:41;;;;;;;7.22;1.88;;;10.20;99.90;;;;;;4856590;29;20124;-69
2024/01/25 02:55:07;;;;;;;8.32;1.80;;;10.20;99.90;;;;;;4857306;29;20029;-70
2024/01/25 02:57:33;;;;;;;11.55;1.75;;;10.10;99.90;;;;;;4872296;29;20438;-69
2024/01/25 02:59:59;;;;;;;4.20;1.33;;;10.10;99.90;;;;;;4857136;29;20021;-69
2024/01/25 03:02:25;;;;;;;18.73;1.42;;;10.10;99.90;;;;;;4860343;29;20521;-70
2024/01/25 03:04:54;;;;;;;8.90;1.40;;;10.10;99.90;;;;;;4860094;29;20061;-69
2024/01/25 03:07:20;;;;;;;8.73;1.60;;;10.00;99.90;;;;;;4860345;29;20384;-69
2024/01/25 03:09:45;;;;;;;13.07;1.38;;;10.00;99.90;;;;;;4859195;29;20102;-69
2024/01/25 03:12:11;;;;;;;8.30;1.52;;;9.90;99.90;;;;;;4860468;29;20487;-69
2024/01/25 03:14:37;;;;;;;10.00;1.92;;;10.00;99.90;;;;;;4859077;29;20498;-69
2024/01/25 03:17:03;;;;;;;20.55;1.63;;;9.90;99.90;;;;;;4860140;29;20539;-69
2024/01/25 03:19:29;;;;;;;23.33;1.75;;;9.90;99.90;;;;;;4857567;29;20120;-69
2024/01/25 03:21:55;;;;;;;13.20;2.38;;;9.80;99.90;;;;;;4859496;29;20040;-69
2024/01/25 03:24:21;;;;;;;4.03;0.82;;;9.80;99.90;;;;;;4858267;29;20055;-69
2024/01/25 03:26:48;;;;;;;15.80;2.22;;;9.80;99.90;;;;;;4861187;29;20375;-69
2024/01/25 03:29:14;;;;;;;7.25;1.48;;;9.70;99.90;;;;;;4858824;29;20030;-69
2024/01/25 03:31:40;;;;;;;13.40;2.38;;;9.70;99.90;;;;;;4859947;29;20402;-69
2024/01/25 03:34:05;;;;;;;7.78;2.15;;;9.60;99.90;;;;;;4858166;29;20089;-69
2024/01/25 03:36:32;;;;;;;4.50;1.95;;;9.60;99.90;;;;;;4860157;29;20033;-69
2024/01/25 03:38:58;;;;;;;16.88;2.47;;;9.60;99.90;;;;;;4859031;29;20033;-69
2024/01/25 03:41:24;;;;;;;6.95;1.05;;;9.50;99.90;;;;;;4859515;29;20044;-70
2024/01/25 03:43:50;;;;;;;10.55;1.77;;;9.40;99.90;;;;;;4858598;29;20033;-69
2024/01/25 03:46:17;;;;;;;8.63;2.60;;;9.40;99.90;;;;;;4860098;29;20043;-70
2024/01/25 03:48:43;;;;;;;19.08;3.20;;;9.40;99.90;;;;;;4858938;29;20452;-69
2024/01/25 03:51:09;;;;;;;4.95;1.27;;;9.40;99.90;;;;;;4858672;29;20049;-69
2024/01/25 03:53:35;;;;;;;16.38;2.35;;;9.50;99.90;;;;;;4858518;29;20034;-69
2024/01/25 03:56:03;;;;;;;7.32;1.58;;;9.40;99.90;;;;;;4859664;29;20029;-69
2024/01/25 03:58:29;;;;;;;22.65;3.03;;;9.40;99.90;;;;;;4858312;29;20040;-70
2024/01/25 04:00:55;;;;;;;18.73;3.38;;;9.30;99.90;;;;;;4874292;29;20415;-69
2024/01/25 04:03:21;;;;;;;9.32;1.45;;;9.30;99.90;;;;;;4859042;29;20030;-69
2024/01/25 04:05:46;;;;;;;11.35;1.98;;;9.30;99.90;;;;;;4860281;29;20486;-69
2024/01/25 04:08:12;;;;;;;13.00;1.88;;;9.20;99.90;;;;;;4860616;29;20029;-69
2024/01/25 04:10:38;;;;;;;4.43;1.45;;;9.30;99.90;;;;;;4874217;29;20029;-69
2024/01/25 04:13:04;;;;;;;17.52;2.05;;;9.20;99.90;;;;;;4859951;29;20030;-69
2024/01/25 04:15:30;;;;;;;21.90;3.15;;;9.10;99.90;;;;;;4857803;29;20124;-69
2024/01/25 04:17:56;;;;;;;3.03;1.00;;;9.10;99.90;;;;;;4860129;29;20274;-69
2024/01/25 04:20:22;;;;;;;7.68;1.52;;;9.00;99.90;;;;;;4874423;29;20560;-69
2024/01/25 04:22:48;;;;;;;17.20;1.73;;;9.00;99.90;;;;;;4859936;29;20044;-69
2024/01/25 04:25:14;;;;;;;15.73;1.85;;;8.90;99.90;;;;;;4857268;29;20368;-69
2024/01/25 04:27:40;;;;;;;9.35;1.85;;;8.80;99.90;;;;;;4860647;29;20048;-69
2024/01/25 04:30:08;;;;;;;5.90;1.27;;;8.70;99.90;;;;;;4855085;29;20487;-69
2024/01/25 04:32:34;;;;;;;12.95;2.10;;;8.70;99.90;;;;;;4874254;29;20037;-70
2024/01/25 04:35:00;;;;;;;6.82;1.27;;;8.60;99.90;;;;;;4857337;29;20100;-70
2024/01/25 04:37:26;;;;;;;17.33;1.95;;;8.70;99.90;;;;;;4860479;29;20045;-70
2024/01/25 04:39:52;;;;;;;18.05;2.72;;;8.60;99.90;;;;;;4859109;29;20568;-70
2024/01/25 04:42:18;;;;;;;11.00;2.40;;;8.60;99.90;;;;;;4872572;29;20462;-70
2024/01/25 04:44:43;;;;;;;12.10;2.38;;;8.60;99.90;;;;;;4856685;29;20036;-70
2024/01/25 04:47:09;;;;;;;15.80;1.95;;;8.60;99.90;;;;;;4831627;29;20075;-70
2024/01/25 04:49:36;;;;;;;17.23;1.50;;;8.60;99.90;;;;;;4860269;29;20120;-70
2024/01/25 04:52:04;;;;;;;8.98;1.75;;;8.60;99.90;;;;;;4858029;29;20082;-69
2024/01/25 04:54:30;;;;;;;16.13;2.00;;;8.50;99.90;;;;;;4872084;29;20042;-69
2024/01/25 04:56:55;;;;;;;6.00;1.38;;;8.50;99.90;;;;;;4859609;29;20501;-69
2024/01/25 04:59:21;;;;;;;12.10;1.58;;;8.50;99.90;;;;;;4856769;29;20097;-70
2024/01/25 05:01:47;;;;;;;22.05;1.80;;;8.50;99.90;;;;;;4859659;29;20072;-69
2024/01/25 05:04:13;;;;;;;9.25;2.22;;;8.50;99.90;;;;;;4871724;29;20053;-69
2024/01/25 05:06:38;;;;;;;8.77;1.23;;;8.60;99.90;;;;;;4859801;29;20112;-69
2024/01/25 05:09:04;;;;;;;8.35;2.20;;;8.60;99.90;;;;;;4856180;29;20080;-70
2024/01/25 05:11:30;;;;;;;9.88;1.42;;;8.60;99.90;;;;;;4858640;29;20534;-69
2024/01/25 05:13:55;;;;;;;7.07;1.58;;;8.60;99.90;;;;;;4855730;29;20033;-70
2024/01/25 05:16:21;;;;;;;11.63;1.67;;;8.50;99.90;;;;;;4858936;29;20518;-70
2024/01/25 05:18:47;;;;;;;13.30;2.50;;;8.50;99.90;;;;;;4858850;29;20045;-70
2024/01/25 05:21:13;;;;;;;5.35;0.75;;;8.50;99.90;;;;;;4858537;29;20053;-70
2024/01/25 05:23:38;;;;;;;22.90;2.22;;;8.40;99.90;;;;;;4854881;29;20040;-69
2024/01/25 05:26:06;;;;;;;8.02;2.00;;;8.30;99.90;;;;;;4857146;29;20043;-70
2024/01/25 05:28:32;;;;;;;6.32;1.10;;;8.20;99.90;;;;;;4848191;29;20033;-69
2024/01/25 05:30:57;;;;;;;17.05;2.22;;;8.20;99.90;;;;;;4856565;29;20530;-69
2024/01/25 05:33:23;;;;;;;8.77;1.52;;;8.10;99.90;;;;;;4858550;29;20033;-69
2024/01/25 05:35:50;;;;;;;12.30;2.78;;;8.10;99.90;;;;;;4858475;29;20127;-69
2024/01/25 05:38:16;;;;;;;21.23;2.67;;;8.10;99.90;;;;;;4872965;29;20109;-68
2024/01/25 05:40:42;;;;;;;13.25;1.88;;;8.10;99.90;;;;;;4855348;29;20036;-69
2024/01/25 05:43:08;;;;;;;4.75;1.50;;;8.20;99.90;;;;;;4858339;29;20038;-69
2024/01/25 05:45:33;;;;;;;6.88;1.35;;;8.20;99.90;;;;;;4871627;29;20379;-69
2024/01/25 05:47:59;;;;;;;19.98;2.90;;;8.30;99.90;;;;;;4858436;29;20030;-70
2024/01/25 05:50:25;;;;;;;6.78;2.08;;;8.40;99.90;;;;;;4855580;29;20087;-69
2024/01/25 05:52:51;;;;;;;33.40;2.22;;;8.40;99.90;;;;;;4872604;29;20121;-69
2024/01/25 05:55:17;;;;;;;16.40;1.95;;;8.40;99.90;;;;;;4847610;29;20526;-69
2024/01/25 05:57:46;;;;;;;8.55;1.95;;;8.30;99.90;;;;;;4858347;29;20032;-69
2024/01/25 06:00:14;;;;;;;16.92;2.45;;;8.20;99.90;;;;;;4856900;29;20547;-70
2024/01/25 06:02:40;;;;;;;15.90;1.98;;;8.20;99.90;;;;;;4872597;29;20036;-70
2024/01/25 06:05:06;;;;;;;12.98;2.78;;;8.10;99.90;;;;;;4855148;29;20037;-69
2024/01/25 06:07:31;;;;;;;10.55;2.15;;;8.10;99.90;;;;;;4858329;29;20530;-69
2024/01/25 06:09:57;;;;;;;22.33;1.88;;;8.10;99.90;;;;;;4868864;29;20041;-69
2024/01/25 06:12:23;;;;;;;13.02;2.30;;;8.10;99.90;;;;;;4857888;29;20117;-69
2024/01/25 06:14:48;;;;;;;16.27;3.20;;;8.20;99.90;;;;;;4853245;29;20386;-69
2024/01/25 06:17:14;;;;;;;8.27;1.70;;;8.20;99.90;;;;;;4856351;29;20116;-70
2024/01/25 06:19:40;;;;;;;8.95;1.63;;;8.20;99.90;;;;;;4855729;29;20042;-70
2024/01/25 06:22:06;;;;;;;17.35;2.22;;;8.30;99.90;;;;;;4866412;29;20037;-70
2024/01/25 06:24:32;;;;;;;18.13;2.05;;;8.30;99.90;;;;;;4847478;29;20047;-69
2024/01/25 06:26:57;;;;;;;6.60;1.90;;;8.20;99.90;;;;;;4854437;29;20667;-70
2024/01/25 06:29:23;;;;;;;10.55;1.98;;;8.30;99.90;;;;;;4853804;29;20394;-70
2024/01/25 06:31:49;;;;;;;7.95;1.52;;;8.30;99.90;;;;;;4856534;29;20041;-70
2024/01/25 06:34:15;;;;;;;7.15;2.35;;;8.30;99.90;;;;;;4857129;29;20033;-70
2024/01/25 06:36:40;;;;;;;22.67;3.30;;;8.30;99.90;;;;;;4876134;29;20044;-70
2024/01/25 06:39:06;;;;;;;15.32;1.98;;;8.30;99.90;;;;;;4859940;29;20137;-69
2024/01/25 06:41:32;;;;;;;16.65;1.70;;;8.30;99.90;;;;;;4861962;29;20097;-70
2024/01/25 06:43:59;;;;;;;5.22;1.65;;;8.30;99.90;;;;;;4856798;29;20479;-69
2024/01/25 06:46:25;;;;;;;12.45;1.95;;;8.20;99.90;;;;;;4876031;29;20048;-69
2024/01/25 06:48:52;;;;;;;20.73;2.58;;;8.20;99.90;;;;;;4859296;29;20117;-69
2024/01/25 06:51:17;;;;;;;15.38;2.85;;;8.20;99.90;;;;;;4858128;29;20037;-68
2024/01/25 06:53:43;;;;;;;18.05;3.70;;;8.20;99.90;;;;;;4859191;29;20046;-68
2024/01/25 06:56:09;;;;;;;16.00;1.95;;;8.20;99.90;;;;;;4859833;29;20444;-67
2024/01/25 06:58:35;;;;;;;8.35;2.58;;;8.20;99.90;;;;;;4861768;29;20021;-67
2024/01/25 07:01:01;;;;;;;12.32;2.47;;;8.10;99.90;;;;;;4874944;29;20037;-68
2024/01/25 07:03:26;;;;;;;9.25;1.30;;;8.20;99.90;;;;;;4861810;29;20053;-69
2024/01/25 07:05:55;;;;;;;21.45;2.20;;;8.10;99.90;;;;;;4859045;29;20120;-69
2024/01/25 07:08:24;;;;;;;;;;;8.00;99.90;;;;;;4862858;29;20038;-69
2024/01/25 07:10:50;;;;;;;11.00;2.33;;;8.00;99.90;;;;;;4858352;29;19923;-70
2024/01/25 07:13:16;;;;;;;16.00;1.75;;;7.80;99.90;;;;;;4859367;29;20030;-71
2024/01/25 07:15:42;;;;;;;9.15;2.75;;;7.70;99.90;;;;;;4861473;29;20112;-72
2024/01/25 07:18:08;;;;;;;17.40;2.05;;;7.70;99.90;;;;;;4875506;29;20037;-73
2024/01/25 07:20:35;;;;;;;12.77;2.13;;;7.60;99.90;;;;;;4857946;29;20116;-72
2024/01/25 07:23:01;;;;;;;22.50;4.10;;;7.50;99.90;;;;;;4856342;29;20033;-72
2024/01/25 07:25:26;;;;;;;13.52;1.75;;;7.50;99.90;;;;;;4858980;29;20036;-69
2024/01/25 07:27:52;;;;;;;29.90;3.97;;;7.50;99.90;;;;;;4864376;29;20444;-77
2024/01/25 07:30:18;;;;;;;12.05;1.67;;;7.50;99.90;;;;;;4860727;29;20030;-78
2024/01/25 07:32:45;;;;;;;31.98;2.53;;;7.40;99.90;;;;;;4864880;29;20053;-78
2024/01/25 07:35:12;;;;;;;17.80;2.53;;;7.40;99.90;;;;;;4874336;29;20129;-79
2024/01/25 07:37:41;;;;;;;10.50;2.67;;;7.30;99.90;;;;;;4865117;29;20379;-79
2024/01/25 07:40:09;;;;;;;6.80;1.38;;;7.30;99.90;;;;;;4863959;29;20022;-78
2024/01/25 07:42:34;;;;;;;7.90;1.40;;;7.30;99.90;;;;;;4861779;29;20045;-77
2024/01/25 07:45:00;;;;;;;17.85;3.33;;;7.40;99.90;;;;;;4862049;29;20036;-78
2024/01/25 07:47:26;;;;;;;9.88;3.00;;;7.40;99.90;;;;;;4863479;29;20041;-78
2024/01/25 07:49:52;;;;;;;11.82;2.42;;;7.40;99.90;;;;;;4864155;29;20043;-78
2024/01/25 07:52:18;;;;;;;5.30;1.75;;;7.40;99.90;;;;;;4863603;29;20033;-78
2024/01/25 07:54:45;;;;;;;41.47;3.30;;;7.40;99.90;;;;;;4861889;29;20044;-77
2024/01/25 07:57:11;;;;;;;23.48;2.38;;;7.50;99.90;;;;;;4864977;29;20120;-77
2024/01/25 07:59:37;;;;;;;12.90;1.92;;;7.50;99.90;;;;;;4863142;29;20083;-77
2024/01/25 08:02:03;;;;;;;9.10;1.55;;;7.60;99.90;;;;;;4860429;29;20133;-77
2024/01/25 08:04:28;;;;;;;12.10;1.98;;;7.70;99.90;;;;;;4877171;29;20061;-76
2024/01/25 08:06:54;;;;;;;11.98;1.92;;;7.70;99.90;;;;;;4861566;29;20037;-78
2024/01/25 08:09:20;;;;;;;28.55;3.00;;;7.60;99.90;;;;;;4863602;29;20057;-78
2024/01/25 08:11:46;;;;;;;10.55;1.52;;;7.70;99.90;;;;;;4860556;29;20502;-75
2024/01/25 08:14:11;;;;;;;9.10;1.83;;;7.70;99.90;;;;;;4861848;29;20040;-77
2024/01/25 08:16:37;;;;;;;13.35;1.92;;;7.70;99.90;;;;;;4873616;29;20649;-76
2024/01/25 08:19:04;;;;;;;19.08;2.25;;;7.70;99.90;;;;;;4861724;29;20037;-76
2024/01/25 08:21:30;;;;;;;20.20;2.15;;;7.70;99.90;;;;;;4858111;29;20029;-77
2024/01/25 08:23:56;;;;;;;16.33;1.30;;;7.70;99.90;;;;;;4859973;29;20038;-77
2024/01/25 08:26:22;;;;;;;19.00;2.05;;;7.80;99.90;;;;;;4859445;29;20045;-76
2024/01/25 08:28:47;;;;;;;9.68;1.80;;;7.80;99.90;;;;;;4859521;29;20469;-76
2024/01/25 08:31:13;;;;;;;13.82;3.15;;;7.80;99.90;;;;;;4858980;29;20038;-76
2024/01/25 08:33:47;;;;;;;16.38;3.08;;;7.90;99.90;;;;;;4860507;29;20041;-76
2024/01/25 08:36:18;;;;;;;22.50;2.33;;;7.90;99.90;;;;;;4859362;29;20033;-76
2024/01/25 08:38:44;;;;;;;9.32;1.92;;;7.80;99.90;;;;;;4856176;29;20386;-77
2024/01/25 08:41:11;;;;;;;16.00;1.70;;;7.80;99.90;;;;;;4860154;29;20117;-76
2024/01/25 08:43:37;;;;;;;12.93;1.63;;;7.90;99.90;;;;;;4859542;29;20036;-76
2024/01/25 08:46:03;;;;;;;11.32;2.47;;;7.90;99.90;;;;;;4858039;29;20400;-76
2024/01/25 08:48:29;;;;;;;14.80;2.42;;;7.90;99.90;;;;;;4860830;29;20026;-76
2024/01/25 08:50:55;;;;;;;12.90;3.03;;;7.90;99.90;;;;;;4857737;29;20033;-76
2024/01/25 08:53:22;;;;;;;12.90;2.00;;;8.00;99.90;;;;;;4860116;29;20037;-73
2024/01/25 08:55:48;;;;;;;13.18;2.97;;;8.10;99.90;;;;;;4854299;29;20087;-73
2024/01/25 08:58:14;;;;;;;18.35;2.05;;;8.20;99.90;;;;;;4855528;29;20026;-73
2024/01/25 09:00:40;;;;;;;18.70;2.63;;;8.30;99.90;;;;;;4856529;29;20089;-74
2024/01/25 09:03:06;;;;;;;11.63;1.52;;;8.40;99.90;;;;;;4857575;29;20053;-73
2024/01/25 09:05:34;;;;;;;13.60;1.90;;;8.50;99.90;;;;;;4871923;29;20033;-73
2024/01/25 09:08:00;;;;;;;12.82;1.30;;;8.70;99.90;;;;;;4858577;29;20030;-73
2024/01/25 09:10:25;;;;;;;17.08;2.85;;;8.70;99.90;;;;;;4858141;29;20040;-73
2024/01/25 09:12:51;;;;;;;10.95;2.88;;;8.80;99.90;;;;;;4856134;29;20049;-73
2024/01/25 09:15:18;;;;;;;17.40;2.97;;;9.00;99.90;;;;;;4849709;29;20428;-73
2024/01/25 09:17:51;;;;;;;18.70;2.20;;;9.10;99.90;;;;;;4984423;28;20924;-72
2024/01/25 09:20:17;;;;;;;8.77;1.77;;;9.20;99.90;;;;;;5005798;28;20034;-72
2024/01/25 09:22:43;;;;;;;17.02;2.35;;;9.20;99.90;;;;;;4995058;28;20114;-73
2024/01/25 09:25:09;;;;;;;9.75;2.28;;;9.40;99.90;;;;;;4990009;28;20433;-73
2024/01/25 09:27:34;;;;;;;15.07;3.45;;;9.50;99.90;;;;;;5000479;28;20042;-73
2024/01/25 09:30:00;;;;;;;7.93;2.63;;;9.60;99.90;;;;;;4976301;28;20035;-73
2024/01/25 09:32:26;;;;;;;14.73;2.45;;;9.80;99.90;;;;;;4985918;28;20081;-73
2024/01/25 09:34:52;;;;;;;11.13;2.08;;;9.90;99.90;;;;;;4967183;28;20119;-72
2024/01/25 09:37:19;;;;;;;23.70;2.42;;;9.90;99.90;;;;;;5023448;28;20020;-72
2024/01/25 09:39:45;;;;;;;18.92;2.65;;;10.00;99.90;;;;;;4983427;28;20027;-72
2024/01/25 09:42:12;;;;;;;13.43;3.35;;;10.30;99.90;;;;;;4989562;28;20562;-72
2024/01/25 09:44:39;;;;;;;14.40;2.30;;;10.30;99.90;;;;;;4994238;28;20029;-72
2024/01/25 09:47:09;;;;;;;23.30;2.92;;;10.50;99.90;;;;;;4976710;28;20558;-72
2024/01/25 09:49:34;;;;;;;16.40;2.17;;;10.60;99.90;;;;;;4986042;28;20466;-72
2024/01/25 09:52:06;;;;;;;15.43;2.03;;;10.70;99.90;;;;;;5020476;28;20127;-73
2024/01/25 09:54:36;;;;;;;6.00;1.27;;;10.60;99.90;;;;;;5005212;28;20035;-73
2024/01/25 09:57:24;;;;;;;9.73;2.80;;;10.90;99.90;;;;;;4990115;28;20069;-73
2024/01/25 09:59:54;;;;;;;14.48;2.80;;;10.90;99.90;;;;;;4994519;28;20019;-73
2024/01/25 10:02:21;;;;;;;6.85;1.35;;;11.10;99.90;;;;;;4994141;28;20061;-72
2024/01/25 10:04:53;;;;;;;14.95;2.30;;;11.10;99.90;;;;;;4966604;28;20131;-72
2024/01/25 10:07:38;;;;;;;13.02;2.42;;;11.20;99.90;;;;;;4968758;28;20031;-72
2024/01/25 10:10:05;;;;;;;17.70;1.80;;;11.40;99.90;;;;;;4967337;28;20039;-72
2024/01/25 10:12:31;;;;;;;12.40;1.92;;;12.30;99.90;;;;;;4977480;28;20038;-73
2024/01/25 10:14:58;;;;;;;14.23;2.50;;;13.60;99.90;;;;;;5007126;28;20094;-73
2024/01/25 10:17:24;;;;;;;13.88;2.33;;;14.80;99.90;;;;;;4990485;28;20116;-73
2024/01/25 10:19:49;;;;;;;12.50;1.63;;;15.00;99.10;;;;;;4981518;28;20465;-72
2024/01/25 10:22:15;;;;;;;8.10;1.33;;;15.00;97.50;;;;;;4984914;28;20118;-73
2024/01/25 10:24:41;;;;;;;5.93;1.67;;;15.40;97.30;;;;;;4964280;28;20102;-73
2024/01/25 10:27:08;;;;;;;11.45;2.22;;;16.70;95.00;;;;;;4989073;28;20039;-73
2024/01/25 10:29:40;;;;;;;9.07;1.77;;;16.50;94.30;;;;;;4960842;28;20030;-73
2024/01/25 10:32:07;;;;;;;13.40;2.58;;;16.50;93.20;;;;;;4969376;28;20031;-73
2024/01/25 10:34:36;;;;;;;17.23;1.83;;;16.10;93.40;;;;;;4975711;28;20038;-73
2024/01/25 10:37:07;;;;;;;21.63;2.15;;;17.20;93.60;;;;;;4971957;28;20045;-73
2024/01/25 10:39:34;;;;;;;19.15;3.03;;;17.50;91.00;;;;;;4983507;28;20157;-73
2024/01/25 10:42:00;;;;;;;16.52;3.35;;;17.70;90.60;;;;;;4992224;28;20035;-72
2024/01/25 10:44:26;;;;;;;16.00;1.80;;;18.50;85.70;;;;;;4964931;28;20150;-72
2024/01/25 10:46:54;;;;;;;9.38;1.65;;;18.50;86.30;;;;;;4980164;28;20028;-73
2024/01/25 10:49:21;;;;;;;10.98;2.58;;;17.50;88.00;;;;;;4974337;28;20033;-73
2024/01/25 10:51:48;;;;;;;15.98;2.90;;;18.00;87.30;;;;;;4988414;28;20035;-73
2024/01/25 10:54:14;;;;;;;12.32;2.15;;;16.00;90.80;;;;;;4970237;28;20027;-73
2024/01/25 10:56:47;;;;;;;11.90;2.75;;;16.30;90.80;;;;;;4971493;28;20037;-72
2024/01/25 10:59:13;;;;;;;13.77;2.00;;;15.00;94.60;;;;;;4985936;28;20558;-73
2024/01/25 11:01:46;;;;;;;7.13;1.92;;;15.50;94.00;;;;;;4972052;28;20081;-73
2024/01/25 11:04:19;;;;;;;5.78;1.63;;;14.90;94.10;;;;;;4974262;28;20027;-72
2024/01/25 11:06:45;;;;;;;6.05;1.67;;;14.60;95.60;;;;;;5011844;28;20035;-72
2024/01/25 11:09:21;;;;;;;17.25;3.13;;;14.70;96.60;;;;;;4972992;28;20041;-73
2024/01/25 11:11:49;;;;;;;9.98;1.55;;;13.90;97.60;;;;;;4971019;28;20061;-72
2024/01/25 11:14:16;;;;;;;6.13;1.70;;;13.30;98.30;;;;;;4976369;28;20079;-72
2024/01/25 11:16:47;;;;;;;14.82;2.83;;;12.50;99.90;;;;;;4986160;28;20043;-72
2024/01/25 11:19:21;;;;;;;10.53;1.80;;;12.50;99.90;;;;;;4992961;28;20742;-72
2024/01/25 11:21:49;;;;;;;10.93;1.75;;;13.30;99.90;;;;;;4970608;28;20278;-72
2024/01/25 11:24:25;;;;;;;8.40;1.70;;;14.60;97.00;;;;;;4962963;28;20030;-72
2024/01/25 11:26:54;;;;;;;11.82;2.00;;;14.80;96.50;;;;;;4967552;28;20042;-73
2024/01/25 11:29:22;;;;;;;11.20;1.38;;;14.50;97.80;;;;;;4993728;28;20054;-72
2024/01/25 11:31:51;;;;;;;6.07;1.48;;;16.50;93.10;;;;;;4972780;28;20035;-73
2024/01/25 11:34:20;;;;;;;11.18;1.77;;;17.30;90.10;;;;;;4987049;28;20037;-73
2024/01/25 11:36:46;;;;;;;11.68;2.05;;;15.60;92.80;;;;;;4993282;28;20037;-73
2024/01/25 11:39:15;;;;;;;11.77;1.85;;;15.20;93.70;;;;;;4959100;28;20107;-73
2024/01/25 11:41:43;;;;;;;8.38;1.30;;;16.00;93.30;;;;;;4987262;28;20020;-73
2024/01/25 11:44:13;;;;;;;13.85;1.70;;;18.30;88.70;;;;;;4995903;28;20050;-73
2024/01/25 11:46:39;;;;;;;8.10;1.92;;;18.60;82.70;;;;;;4978569;28;20491;-73
2024/01/25 11:49:07;;;;;;;7.57;2.30;;;18.40;83.60;;;;;;4990992;28;20074;-73
2024/01/25 11:51:33;;;;;;;12.48;1.92;;;20.20;77.50;;;;;;4979707;28;20474;-73
2024/01/25 11:53:59;;;;;;;12.10;1.70;;;17.80;80.20;;;;;;4991524;28;20118;-73
2024/01/25 11:56:36;;;;;;;13.27;1.63;;;18.60;78.40;;;;;;5012059;28;20080;-73
2024/01/25 11:59:03;;;;;;;9.70;2.03;;;17.00;85.10;;;;;;4944548;28;20035;-73
2024/01/25 12:01:30;;;;;;;7.22;1.45;;;18.70;78.10;;;;;;4958860;28;20027;-72
2024/01/25 12:03:56;;;;;;;11.02;2.13;;;20.30;74.80;;;;;;4957975;28;20038;-72
2024/01/25 12:06:22;;;;;;;5.22;1.30;;;17.80;79.00;;;;;;4997961;28;20031;-72
2024/01/25 12:08:51;;;;;;;6.47;1.63;;;17.70;81.30;;;;;;4966587;28;20497;-72
2024/01/25 12:11:18;;;;;;;20.30;2.47;;;17.50;80.00;;;;;;4997497;28;20074;-72
2024/01/25 12:13:44;;;;;;;12.95;2.70;;;15.50;86.00;;;;;;4963366;28;20570;-72
2024/01/25 12:16:12;;;;;;;7.53;1.52;;;15.40;88.40;;;;;;4994693;28;20561;-72
2024/01/25 12:18:41;;;;;;;16.20;2.92;;;14.90;91.60;;;;;;4942573;28;20070;-73
2024/01/25 12:21:07;;;;;;;8.98;2.22;;;17.20;88.70;;;;;;5007082;28;20028;-72
2024/01/25 12:23:40;;;;;;;13.15;2.20;;;16.00;86.90;;;;;;4966537;28;20032;-73
2024/01/25 12:26:08;;;;;;;9.43;2.00;;;17.20;87.90;;;;;;4992708;28;20052;-73
2024/01/25 12:28:35;;;;;;;13.05;2.53;;;18.40;81.80;;;;;;4974178;28;20119;-72
2024/01/25 12:31:05;;;;;;;7.95;2.13;;;17.70;82.20;;;;;;4978114;28;20030;-73
2024/01/25 12:33:33;;;;;;;8.60;2.47;;;16.80;83.90;;;;;;4971838;28;20110;-72
2024/01/25 12:35:59;;;;;;;9.63;1.83;;;16.70;84.70;;;;;;4966883;28;20522;-72
2024/01/25 12:38:26;;;;;;;7.93;1.63;;;16.70;85.00;;;;;;4952497;28;20040;-72
2024/01/25 12:40:52;;;;;;;3.30;1.23;;;16.80;85.50;;;;;;4965408;28;20030;-72
2024/01/25 12:43:21;;;;;;;2.90;1.17;;;16.60;85.30;;;;;;4962432;28;20015;-72